Terminal Aerodrome Forecast
Issued by NWS Blacksburg, VA

Home | Current Version | Previous Version | Text Only | Print | Product List | Glossary On
Versions: 1 2 3 4 5 6 7 8 9 10 11 12 13 14 15 16 17 18 19 20 21 22 23 24 25 26 27 28 29 30 31 32 33 34 35 36 37 38 39
000
FTUS41 KRNK 262327
TAFLYH
TAF
KLYH 262327Z 2700/2724 22003KT P6SM FEW040 OVC050
     FM270700 25003KT 5SM -RADZ BR OVC015
     FM271500 33006KT P6SM BKN040
     FM271800 34005KT P6SM OVC050
     FM272100 32005KT P6SM SCT060=

USA.gov is the U.S. government's official web portal to all federal, state and local government web resources and services.